X  Fechar Dados meteorológicos de METAR da aviação     KDNN Dalton Municipal Airport
Temperatura
20°C Temperatura
20°C Ponto de orvalho
100% Umidade



Vento
5 KM/H
3 MPH
1 M/S
3 NÓS



140°
SL
Condições atuais

Encoberto Encoberto
Pressão 1011.85 (hPa) - 29.88 (inHg)
Visibilidade 8 (milha) - 12.9 (km)
Aeroporto
Código do aeroporto KDNN

Localização: Dalton Municipal Airport
Distância: 34 (km)

Metar:
KDNN 181155Z AUTO 14003KT 8SM OVC030 20/20 A2988 RMK AO2 T01960196

Hora: 05-18-2024 07:55 EDT